UAL1209 KORD-KEWR
Flight info
| Callsign | UAL1209 |
|---|---|
| Flight time | 1h 26m |
| Altitude | 37000 |
| Route | DUFEE ELX HAAKK DOXXY SOSIC KEEHO J584 SLT FQM3 |
| Aircraft | B752/M-SDE2E3FGHIJ3J4J7RWXY/LB1 |
Departure
| Time | 2026-05-07 14:22 |
|---|---|
| Airport | Chicago O'Hare International Airport (KORD) |
Arrival
| Time | 2026-05-07 15:49 |
|---|---|
| Airport | Newark Liberty International Airport (KEWR) |
| Time | Latitude | Longitude | Altitude | Speed | Heading |
|---|---|---|---|---|---|
| 2026-05-07 13:57 | 41.98085 | -87.90703 | 677 ft | 0 kts | 99° |
| 2026-05-07 14:12 | 41.98086 | -87.90710 | 677 ft | 1 kts | 82° |
| 2026-05-07 14:12 | 41.98084 | -87.90729 | 677 ft | 2 kts | 81° |
| 2026-05-07 14:13 | 41.98079 | -87.90748 | 677 ft | 2 kts | 60° |
| 2026-05-07 14:13 | 41.98070 | -87.90765 | 677 ft | 2 kts | 45° |
| 2026-05-07 14:13 | 41.98059 | -87.90777 | 677 ft | 2 kts | 30° |
| 2026-05-07 14:13 | 41.98045 | -87.90785 | 677 ft | 2 kts | 13° |
| 2026-05-07 14:14 | 41.98038 | -87.90786 | 677 ft | 0 kts | 7° |
| 2026-05-07 14:16 | 41.98064 | -87.90781 | 677 ft | 7 kts | 7° |
| 2026-05-07 14:16 | 41.98115 | -87.90782 | 677 ft | 7 kts | 356° |
| 2026-05-07 14:16 | 41.98166 | -87.90788 | 677 ft | 7 kts | 355° |
| 2026-05-07 14:16 | 41.98219 | -87.90794 | 677 ft | 7 kts | 354° |
| 2026-05-07 14:17 | 41.98260 | -87.90797 | 677 ft | 4 kts | 10° |
| 2026-05-07 14:17 | 41.98283 | -87.90759 | 677 ft | 8 kts | 75° |
| 2026-05-07 14:17 | 41.98287 | -87.90659 | 677 ft | 11 kts | 89° |
| 2026-05-07 14:17 | 41.98287 | -87.90549 | 677 ft | 11 kts | 90° |
| 2026-05-07 14:18 | 41.98287 | -87.90439 | 677 ft | 11 kts | 90° |
| 2026-05-07 14:18 | 41.98287 | -87.90329 | 677 ft | 11 kts | 90° |
| 2026-05-07 14:18 | 41.98287 | -87.90220 | 677 ft | 11 kts | 90° |
| 2026-05-07 14:18 | 41.98287 | -87.90112 | 677 ft | 11 kts | 90° |
| 2026-05-07 14:19 | 41.98287 | -87.89976 | 677 ft | 18 kts | 90° |
| 2026-05-07 14:19 | 41.98287 | -87.89786 | 677 ft | 20 kts | 90° |
| 2026-05-07 14:19 | 41.98279 | -87.89595 | 677 ft | 20 kts | 90° |
| 2026-05-07 14:19 | 41.98279 | -87.89407 | 677 ft | 19 kts | 90° |
| 2026-05-07 14:20 | 41.98279 | -87.89222 | 677 ft | 19 kts | 90° |
| 2026-05-07 14:20 | 41.98279 | -87.89093 | 677 ft | 12 kts | 89° |
| 2026-05-07 14:20 | 41.98310 | -87.89043 | 677 ft | 7 kts | 12° |
| 2026-05-07 14:20 | 41.98375 | -87.89057 | 677 ft | 10 kts | 317° |
| 2026-05-07 14:21 | 41.98387 | -87.89105 | 677 ft | 0 kts | 271° |
| 2026-05-07 14:21 | 41.98388 | -87.89189 | 677 ft | 23 kts | 269° |
| 2026-05-07 14:21 | 41.98390 | -87.89746 | 677 ft | 96 kts | 269° |
| 2026-05-07 14:21 | 41.98387 | -87.90900 | 677 ft | 153 kts | 270° |
| 2026-05-07 14:22 | 41.98388 | -87.91641 | 691 ft | 180 kts | 269° |
| 2026-05-07 14:22 | 41.98386 | -87.92839 | 976 ft | 197 kts | 269° |
| 2026-05-07 14:22 | 41.98393 | -87.94564 | 1397 ft | 169 kts | 269° |
| 2026-05-07 14:22 | 41.98395 | -87.96124 | 1226 ft | 165 kts | 269° |
| 2026-05-07 14:23 | 41.98409 | -87.97811 | 1555 ft | 202 kts | 270° |
| 2026-05-07 14:23 | 41.98441 | -87.99765 | 2628 ft | 218 kts | 271° |
| 2026-05-07 14:23 | 41.98459 | -88.01843 | 3357 ft | 231 kts | 276° |
| 2026-05-07 14:23 | 41.99041 | -88.03818 | 4340 ft | 233 kts | 309° |
| 2026-05-07 14:24 | 42.00371 | -88.05099 | 5075 ft | 251 kts | 337° |
| 2026-05-07 14:24 | 42.02162 | -88.05312 | 5801 ft | 272 kts | 7° |
| 2026-05-07 14:24 | 42.03930 | -88.04313 | 6732 ft | 285 kts | 30° |
| 2026-05-07 14:24 | 42.05400 | -88.02486 | 7661 ft | 293 kts | 48° |
| 2026-05-07 14:25 | 42.06409 | -88.00064 | 8509 ft | 301 kts | 58° |
| 2026-05-07 14:25 | 42.07660 | -87.97872 | 9335 ft | 296 kts | 37° |
| 2026-05-07 14:25 | 42.09181 | -87.96028 | 10194 ft | 297 kts | 36° |
| 2026-05-07 14:25 | 42.10754 | -87.94131 | 10688 ft | 314 kts | 36° |
| 2026-05-07 14:26 | 42.12353 | -87.91956 | 11066 ft | 338 kts | 48° |
| 2026-05-07 14:26 | 42.13547 | -87.89080 | 11366 ft | 366 kts | 66° |
| 2026-05-07 14:26 | 42.14143 | -87.85632 | 11636 ft | 391 kts | 83° |
| 2026-05-07 14:26 | 42.14022 | -87.81909 | 12089 ft | 405 kts | 100° |
| 2026-05-07 14:27 | 42.13166 | -87.78291 | 12745 ft | 410 kts | 114° |
| 2026-05-07 14:27 | 42.12099 | -87.74718 | 13403 ft | 414 kts | 105° |
| 2026-05-07 14:27 | 42.11561 | -87.70901 | 14068 ft | 418 kts | 96° |
| 2026-05-07 14:27 | 42.11302 | -87.66988 | 14732 ft | 421 kts | 92° |
| 2026-05-07 14:28 | 42.11164 | -87.63041 | 15389 ft | 426 kts | 91° |
| 2026-05-07 14:28 | 42.11101 | -87.59804 | 15880 ft | 430 kts | 90° |
| 2026-05-07 14:28 | 42.11059 | -87.55768 | 16478 ft | 435 kts | 90° |
| 2026-05-07 14:28 | 42.11040 | -87.51678 | 17057 ft | 440 kts | 89° |
| 2026-05-07 14:29 | 42.11031 | -87.47559 | 17711 ft | 443 kts | 89° |
| 2026-05-07 14:29 | 42.11028 | -87.43407 | 18276 ft | 448 kts | 89° |
| 2026-05-07 14:29 | 42.11028 | -87.39205 | 18797 ft | 453 kts | 90° |
| 2026-05-07 14:29 | 42.11026 | -87.34954 | 19341 ft | 457 kts | 90° |
| 2026-05-07 14:30 | 42.11026 | -87.30722 | 19867 ft | 461 kts | 91° |
| 2026-05-07 14:30 | 42.11022 | -87.26365 | 20294 ft | 468 kts | 90° |
| 2026-05-07 14:30 | 42.11019 | -87.21977 | 20794 ft | 472 kts | 90° |
| 2026-05-07 14:30 | 42.11013 | -87.17538 | 21249 ft | 476 kts | 90° |
| 2026-05-07 14:31 | 42.11007 | -87.13071 | 21675 ft | 482 kts | 90° |
| 2026-05-07 14:31 | 42.10998 | -87.08565 | 22124 ft | 486 kts | 91° |
| 2026-05-07 14:31 | 42.11093 | -87.03997 | 22556 ft | 490 kts | 86° |
| 2026-05-07 14:31 | 42.11282 | -86.99403 | 23007 ft | 493 kts | 87° |
| 2026-05-07 14:32 | 42.11458 | -86.94781 | 23368 ft | 499 kts | 87° |
| 2026-05-07 14:32 | 42.11631 | -86.90127 | 23895 ft | 500 kts | 87° |
| 2026-05-07 14:32 | 42.11804 | -86.85435 | 24193 ft | 506 kts | 87° |
| 2026-05-07 14:32 | 42.11974 | -86.80710 | 24552 ft | 509 kts | 87° |
| 2026-05-07 14:33 | 42.12145 | -86.75927 | 24883 ft | 514 kts | 88° |
| 2026-05-07 14:33 | 42.12314 | -86.71109 | 25244 ft | 518 kts | 87° |
| 2026-05-07 14:33 | 42.12484 | -86.66225 | 25557 ft | 524 kts | 88° |
| 2026-05-07 14:33 | 42.12653 | -86.61311 | 25954 ft | 527 kts | 88° |
| 2026-05-07 14:34 | 42.12820 | -86.56357 | 26337 ft | 530 kts | 88° |
| 2026-05-07 14:34 | 42.12987 | -86.51369 | 26656 ft | 535 kts | 88° |
| 2026-05-07 14:34 | 42.13152 | -86.46330 | 26939 ft | 540 kts | 88° |
| 2026-05-07 14:34 | 42.13317 | -86.41276 | 27327 ft | 543 kts | 88° |
| 2026-05-07 14:35 | 42.13482 | -86.36154 | 27566 ft | 549 kts | 88° |
| 2026-05-07 14:35 | 42.13646 | -86.30976 | 27965 ft | 550 kts | 89° |
| 2026-05-07 14:35 | 42.13807 | -86.25784 | 28243 ft | 554 kts | 89° |
| 2026-05-07 14:35 | 42.13966 | -86.20580 | 28477 ft | 560 kts | 89° |
| 2026-05-07 14:36 | 42.14127 | -86.15313 | 28824 ft | 562 kts | 89° |
| 2026-05-07 14:36 | 42.14206 | -86.10057 | 29130 ft | 563 kts | 93° |
| 2026-05-07 14:36 | 42.14155 | -86.04741 | 29319 ft | 568 kts | 92° |
| 2026-05-07 14:36 | 42.14115 | -85.99391 | 29589 ft | 573 kts | 93° |
| 2026-05-07 14:37 | 42.14076 | -85.94019 | 30019 ft | 572 kts | 93° |
| 2026-05-07 14:37 | 42.13989 | -85.83227 | 30675 ft | 575 kts | 92° |
| 2026-05-07 14:37 | 42.13943 | -85.77850 | 31175 ft | 572 kts | 92° |
| 2026-05-07 14:38 | 42.13895 | -85.72481 | 31452 ft | 573 kts | 92° |
| 2026-05-07 14:38 | 42.13845 | -85.67106 | 31859 ft | 570 kts | 92° |
| 2026-05-07 14:38 | 42.13794 | -85.61752 | 32201 ft | 570 kts | 92° |
| 2026-05-07 14:38 | 42.13739 | -85.56372 | 32484 ft | 571 kts | 92° |
| 2026-05-07 14:39 | 42.13681 | -85.51003 | 32842 ft | 570 kts | 92° |
| 2026-05-07 14:39 | 42.13623 | -85.45589 | 33156 ft | 569 kts | 92° |
| 2026-05-07 14:39 | 42.13561 | -85.40245 | 33496 ft | 568 kts | 92° |
| 2026-05-07 14:39 | 42.13496 | -85.34893 | 33817 ft | 568 kts | 92° |
| 2026-05-07 14:40 | 42.13431 | -85.29545 | 34244 ft | 563 kts | 93° |
| 2026-05-07 14:40 | 42.13361 | -85.24204 | 34549 ft | 563 kts | 92° |
| 2026-05-07 14:40 | 42.13291 | -85.18909 | 34839 ft | 563 kts | 92° |
| 2026-05-07 14:40 | 42.13217 | -85.13634 | 35173 ft | 561 kts | 93° |
| 2026-05-07 14:41 | 42.13143 | -85.08373 | 35487 ft | 559 kts | 93° |
| 2026-05-07 14:41 | 42.13063 | -85.03110 | 35751 ft | 559 kts | 93° |
| 2026-05-07 14:41 | 42.12971 | -84.97842 | 36051 ft | 556 kts | 93° |
| 2026-05-07 14:41 | 42.12879 | -84.92602 | 36297 ft | 556 kts | 93° |
| 2026-05-07 14:42 | 42.12783 | -84.87365 | 36528 ft | 555 kts | 93° |
| 2026-05-07 14:42 | 42.12686 | -84.82128 | 36780 ft | 554 kts | 93° |
| 2026-05-07 14:42 | 42.12586 | -84.76899 | 36966 ft | 553 kts | 93° |
| 2026-05-07 14:42 | 42.12484 | -84.71695 | 37010 ft | 553 kts | 93° |
| 2026-05-07 14:43 | 42.12274 | -84.61286 | 37008 ft | 552 kts | 93° |
| 2026-05-07 14:43 | 42.12075 | -84.50861 | 37013 ft | 552 kts | 90° |
| 2026-05-07 14:44 | 42.12917 | -84.40506 | 37011 ft | 555 kts | 81° |
| 2026-05-07 14:44 | 42.14049 | -84.30217 | 36990 ft | 552 kts | 82° |
| 2026-05-07 14:45 | 42.15178 | -84.20007 | 36991 ft | 552 kts | 81° |
| 2026-05-07 14:45 | 42.16313 | -84.09728 | 36984 ft | 552 kts | 81° |
| 2026-05-07 14:46 | 42.17436 | -83.99489 | 36988 ft | 552 kts | 82° |
| 2026-05-07 14:46 | 42.18547 | -83.89248 | 36991 ft | 551 kts | 81° |
| 2026-05-07 14:47 | 42.19645 | -83.79049 | 36996 ft | 550 kts | 81° |
| 2026-05-07 14:47 | 42.20742 | -83.68794 | 36994 ft | 552 kts | 81° |
| 2026-05-07 14:48 | 42.21831 | -83.58513 | 36997 ft | 552 kts | 82° |
| 2026-05-07 14:48 | 42.21973 | -83.48227 | 37014 ft | 549 kts | 100° |
| 2026-05-07 14:49 | 42.20472 | -83.38194 | 36999 ft | 546 kts | 106° |
| 2026-05-07 14:49 | 42.18742 | -83.28223 | 36985 ft | 544 kts | 107° |
| 2026-05-07 14:50 | 42.16957 | -83.18309 | 36985 ft | 545 kts | 108° |
| 2026-05-07 14:50 | 42.15145 | -83.08391 | 36987 ft | 544 kts | 108° |
| 2026-05-07 14:51 | 42.13316 | -82.98464 | 36987 ft | 546 kts | 108° |
| 2026-05-07 14:51 | 42.11478 | -82.88553 | 36983 ft | 545 kts | 108° |
| 2026-05-07 14:52 | 42.09628 | -82.78625 | 36978 ft | 545 kts | 108° |
| 2026-05-07 14:52 | 42.07772 | -82.68717 | 36984 ft | 545 kts | 108° |
| 2026-05-07 14:53 | 42.05906 | -82.58821 | 36981 ft | 546 kts | 108° |
| 2026-05-07 14:53 | 42.04035 | -82.48938 | 36980 ft | 545 kts | 108° |
| 2026-05-07 14:54 | 42.02159 | -82.39075 | 36981 ft | 546 kts | 108° |
| 2026-05-07 14:54 | 42.00271 | -82.29204 | 36965 ft | 545 kts | 109° |
| 2026-05-07 14:55 | 41.98376 | -82.19353 | 36971 ft | 547 kts | 109° |
| 2026-05-07 14:55 | 41.96472 | -82.09491 | 36969 ft | 546 kts | 109° |
| 2026-05-07 14:56 | 41.94568 | -81.99682 | 36977 ft | 544 kts | 109° |
| 2026-05-07 14:56 | 41.92651 | -81.89865 | 36988 ft | 546 kts | 109° |
| 2026-05-07 14:57 | 41.91155 | -81.79861 | 36991 ft | 550 kts | 99° |
| 2026-05-07 14:57 | 41.90251 | -81.69688 | 36977 ft | 551 kts | 99° |
| 2026-05-07 14:58 | 41.89333 | -81.59441 | 36973 ft | 552 kts | 99° |
| 2026-05-07 14:58 | 41.88413 | -81.49245 | 36991 ft | 550 kts | 99° |
| 2026-05-07 14:59 | 41.87487 | -81.39086 | 36980 ft | 550 kts | 99° |
| 2026-05-07 14:59 | 41.86553 | -81.28919 | 36964 ft | 550 kts | 101° |
| 2026-05-07 15:00 | 41.85604 | -81.18705 | 36985 ft | 550 kts | 100° |
| 2026-05-07 15:00 | 41.84649 | -81.08528 | 36963 ft | 551 kts | 100° |
| 2026-05-07 15:01 | 41.83685 | -80.98346 | 36948 ft | 550 kts | 100° |
| 2026-05-07 15:01 | 41.82714 | -80.88180 | 36970 ft | 552 kts | 101° |
| 2026-05-07 15:02 | 41.81731 | -80.77991 | 36963 ft | 551 kts | 101° |
| 2026-05-07 15:02 | 41.80736 | -80.67778 | 36983 ft | 552 kts | 101° |
| 2026-05-07 15:03 | 41.79730 | -80.57560 | 36969 ft | 555 kts | 101° |
| 2026-05-07 15:03 | 41.78711 | -80.47286 | 36976 ft | 554 kts | 101° |
| 2026-05-07 15:04 | 41.77684 | -80.37041 | 36967 ft | 555 kts | 101° |
| 2026-05-07 15:04 | 41.76955 | -80.29810 | 36962 ft | 555 kts | 102° |
| 2026-05-07 15:05 | 41.75915 | -80.19594 | 36965 ft | 553 kts | 102° |
| 2026-05-07 15:05 | 41.74862 | -80.09352 | 36957 ft | 555 kts | 102° |
| 2026-05-07 15:06 | 41.73801 | -79.99111 | 36958 ft | 556 kts | 102° |
| 2026-05-07 15:06 | 41.72727 | -79.88831 | 36941 ft | 556 kts | 102° |
| 2026-05-07 15:07 | 41.71644 | -79.78560 | 36949 ft | 556 kts | 102° |
| 2026-05-07 15:07 | 41.70551 | -79.68287 | 36952 ft | 555 kts | 102° |
| 2026-05-07 15:08 | 41.69448 | -79.58013 | 36929 ft | 556 kts | 102° |
| 2026-05-07 15:08 | 41.68338 | -79.47755 | 36938 ft | 555 kts | 102° |
| 2026-05-07 15:09 | 41.67217 | -79.37499 | 36938 ft | 557 kts | 102° |
| 2026-05-07 15:09 | 41.66080 | -79.27151 | 36931 ft | 556 kts | 103° |
| 2026-05-07 15:10 | 41.64941 | -79.16905 | 36922 ft | 557 kts | 103° |
| 2026-05-07 15:10 | 41.63793 | -79.06662 | 36923 ft | 557 kts | 103° |
| 2026-05-07 15:11 | 41.62636 | -78.96414 | 36908 ft | 556 kts | 103° |
| 2026-05-07 15:11 | 41.61458 | -78.86083 | 36922 ft | 560 kts | 103° |
| 2026-05-07 15:12 | 41.60388 | -78.75810 | 36923 ft | 556 kts | 102° |
| 2026-05-07 15:12 | 41.59292 | -78.65590 | 36918 ft | 558 kts | 103° |
| 2026-05-07 15:13 | 41.58119 | -78.55296 | 36930 ft | 560 kts | 103° |
| 2026-05-07 15:13 | 41.56918 | -78.44998 | 36928 ft | 559 kts | 103° |
| 2026-05-07 15:14 | 41.55703 | -78.34720 | 36942 ft | 559 kts | 104° |
| 2026-05-07 15:14 | 41.54465 | -78.24356 | 36924 ft | 558 kts | 104° |
| 2026-05-07 15:15 | 41.53228 | -78.14091 | 36921 ft | 561 kts | 104° |
| 2026-05-07 15:15 | 41.51980 | -78.03794 | 36847 ft | 564 kts | 104° |
| 2026-05-07 15:16 | 41.51346 | -77.98610 | 36585 ft | 566 kts | 104° |
| 2026-05-07 15:16 | 41.50659 | -77.93445 | 36322 ft | 563 kts | 107° |
| 2026-05-07 15:16 | 41.49921 | -77.88329 | 36089 ft | 561 kts | 107° |
| 2026-05-07 15:16 | 41.49202 | -77.83216 | 35814 ft | 562 kts | 107° |
| 2026-05-07 15:17 | 41.48467 | -77.78047 | 35468 ft | 567 kts | 107° |
| 2026-05-07 15:17 | 41.47729 | -77.72856 | 35144 ft | 571 kts | 107° |
| 2026-05-07 15:17 | 41.46984 | -77.67629 | 34878 ft | 574 kts | 107° |
| 2026-05-07 15:17 | 41.46234 | -77.62385 | 34566 ft | 573 kts | 107° |
| 2026-05-07 15:18 | 41.45484 | -77.57161 | 34244 ft | 574 kts | 107° |
| 2026-05-07 15:18 | 41.44730 | -77.51930 | 33939 ft | 577 kts | 108° |
| 2026-05-07 15:18 | 41.43971 | -77.46676 | 33624 ft | 580 kts | 107° |
| 2026-05-07 15:18 | 41.43200 | -77.41385 | 33308 ft | 584 kts | 108° |
| 2026-05-07 15:19 | 41.42426 | -77.36053 | 33001 ft | 582 kts | 108° |
| 2026-05-07 15:19 | 41.41655 | -77.30762 | 32927 ft | 575 kts | 108° |
| 2026-05-07 15:19 | 41.40106 | -77.20234 | 32938 ft | 582 kts | 109° |
| 2026-05-07 15:20 | 41.38528 | -77.09584 | 32675 ft | 591 kts | 109° |
| 2026-05-07 15:20 | 41.37746 | -77.04263 | 32163 ft | 576 kts | 109° |
| 2026-05-07 15:20 | 41.36965 | -76.99071 | 31692 ft | 567 kts | 109° |
| 2026-05-07 15:21 | 41.36190 | -76.93922 | 31137 ft | 571 kts | 109° |
| 2026-05-07 15:21 | 41.35390 | -76.88718 | 30467 ft | 576 kts | 110° |
| 2026-05-07 15:21 | 41.34603 | -76.83472 | 29757 ft | 575 kts | 109° |
| 2026-05-07 15:21 | 41.33787 | -76.78270 | 29039 ft | 571 kts | 112° |
| 2026-05-07 15:22 | 41.32632 | -76.73316 | 28354 ft | 550 kts | 120° |
| 2026-05-07 15:22 | 41.31312 | -76.68594 | 27644 ft | 538 kts | 120° |
| 2026-05-07 15:22 | 41.30032 | -76.63941 | 26949 ft | 534 kts | 119° |
| 2026-05-07 15:22 | 41.28780 | -76.59328 | 26253 ft | 527 kts | 118° |
| 2026-05-07 15:23 | 41.27547 | -76.54770 | 25562 ft | 521 kts | 117° |
| 2026-05-07 15:23 | 41.26336 | -76.50276 | 24878 ft | 512 kts | 117° |
| 2026-05-07 15:23 | 41.25147 | -76.45865 | 24198 ft | 504 kts | 117° |
| 2026-05-07 15:23 | 41.23966 | -76.41490 | 23533 ft | 496 kts | 116° |
| 2026-05-07 15:24 | 41.22824 | -76.37183 | 22868 ft | 491 kts | 115° |
| 2026-05-07 15:24 | 41.21696 | -76.32904 | 22205 ft | 486 kts | 116° |
| 2026-05-07 15:24 | 41.20568 | -76.28688 | 21566 ft | 478 kts | 116° |
| 2026-05-07 15:24 | 41.19463 | -76.24585 | 20957 ft | 469 kts | 116° |
| 2026-05-07 15:25 | 41.18369 | -76.20552 | 20388 ft | 463 kts | 115° |
| 2026-05-07 15:25 | 41.17301 | -76.16526 | 19774 ft | 462 kts | 115° |
| 2026-05-07 15:25 | 41.16240 | -76.12533 | 19181 ft | 453 kts | 115° |
| 2026-05-07 15:25 | 41.15190 | -76.08636 | 18610 ft | 446 kts | 115° |
| 2026-05-07 15:26 | 41.14142 | -76.04784 | 18078 ft | 441 kts | 115° |
| 2026-05-07 15:26 | 41.13113 | -76.01010 | 17924 ft | 431 kts | 115° |
| 2026-05-07 15:26 | 41.12078 | -75.97244 | 17931 ft | 439 kts | 115° |
| 2026-05-07 15:26 | 41.11016 | -75.93390 | 17275 ft | 446 kts | 115° |
| 2026-05-07 15:27 | 41.09974 | -75.89590 | 16525 ft | 431 kts | 115° |
| 2026-05-07 15:27 | 41.08965 | -75.85920 | 15801 ft | 420 kts | 115° |
| 2026-05-07 15:27 | 41.07968 | -75.82308 | 15039 ft | 411 kts | 115° |
| 2026-05-07 15:27 | 41.06985 | -75.78758 | 14367 ft | 409 kts | 115° |
| 2026-05-07 15:28 | 41.06008 | -75.75237 | 13739 ft | 406 kts | 115° |
| 2026-05-07 15:28 | 41.05033 | -75.71724 | 13149 ft | 403 kts | 115° |
| 2026-05-07 15:28 | 41.04070 | -75.68255 | 12857 ft | 396 kts | 115° |
| 2026-05-07 15:28 | 41.03115 | -75.64825 | 12866 ft | 399 kts | 115° |
| 2026-05-07 15:29 | 41.02146 | -75.61349 | 12861 ft | 402 kts | 115° |
| 2026-05-07 15:29 | 41.01182 | -75.57890 | 12859 ft | 400 kts | 115° |
| 2026-05-07 15:29 | 41.00205 | -75.54394 | 12860 ft | 402 kts | 114° |
| 2026-05-07 15:29 | 40.99238 | -75.50931 | 12855 ft | 402 kts | 114° |
| 2026-05-07 15:30 | 40.98263 | -75.47441 | 12859 ft | 403 kts | 115° |
| 2026-05-07 15:30 | 40.97280 | -75.43943 | 12346 ft | 407 kts | 114° |
| 2026-05-07 15:30 | 40.96313 | -75.40491 | 11706 ft | 396 kts | 114° |
| 2026-05-07 15:30 | 40.95345 | -75.37076 | 11108 ft | 394 kts | 114° |
| 2026-05-07 15:31 | 40.94404 | -75.33711 | 10562 ft | 390 kts | 114° |
| 2026-05-07 15:31 | 40.93464 | -75.30369 | 10162 ft | 387 kts | 114° |
| 2026-05-07 15:31 | 40.92559 | -75.27139 | 9963 ft | 356 kts | 114° |
| 2026-05-07 15:31 | 40.91721 | -75.24167 | 9628 ft | 330 kts | 114° |
| 2026-05-07 15:32 | 40.90965 | -75.21478 | 9632 ft | 301 kts | 114° |
| 2026-05-07 15:32 | 40.90212 | -75.18837 | 9695 ft | 317 kts | 115° |
| 2026-05-07 15:32 | 40.89426 | -75.16070 | 9658 ft | 317 kts | 114° |
| 2026-05-07 15:32 | 40.88660 | -75.13362 | 9655 ft | 313 kts | 114° |
| 2026-05-07 15:33 | 40.87895 | -75.10668 | 9660 ft | 315 kts | 114° |
| 2026-05-07 15:33 | 40.87118 | -75.07920 | 9284 ft | 323 kts | 114° |
| 2026-05-07 15:33 | 40.86332 | -75.05136 | 8788 ft | 323 kts | 113° |
| 2026-05-07 15:33 | 40.85542 | -75.02344 | 8288 ft | 324 kts | 112° |
| 2026-05-07 15:34 | 40.84758 | -74.99569 | 7708 ft | 316 kts | 111° |
| 2026-05-07 15:34 | 40.84004 | -74.96905 | 7279 ft | 302 kts | 111° |
| 2026-05-07 15:34 | 40.83290 | -74.94381 | 7174 ft | 288 kts | 111° |
| 2026-05-07 15:34 | 40.82459 | -74.91968 | 6867 ft | 286 kts | 128° |
| 2026-05-07 15:35 | 40.81128 | -74.90066 | 6888 ft | 283 kts | 139° |
| 2026-05-07 15:35 | 40.79673 | -74.88229 | 6766 ft | 293 kts | 139° |
| 2026-05-07 15:35 | 40.78195 | -74.86370 | 6510 ft | 290 kts | 138° |
| 2026-05-07 15:35 | 40.76731 | -74.84562 | 6253 ft | 285 kts | 139° |
| 2026-05-07 15:36 | 40.75277 | -74.82787 | 5998 ft | 283 kts | 139° |
| 2026-05-07 15:36 | 40.73834 | -74.81036 | 5869 ft | 279 kts | 139° |
| 2026-05-07 15:36 | 40.72399 | -74.79289 | 5872 ft | 282 kts | 139° |
| 2026-05-07 15:36 | 40.70938 | -74.77506 | 5877 ft | 285 kts | 139° |
| 2026-05-07 15:37 | 40.69472 | -74.75711 | 5877 ft | 285 kts | 139° |
| 2026-05-07 15:37 | 40.68015 | -74.73924 | 5877 ft | 286 kts | 139° |
| 2026-05-07 15:37 | 40.66562 | -74.72145 | 5872 ft | 283 kts | 139° |
| 2026-05-07 15:37 | 40.65111 | -74.70359 | 5829 ft | 287 kts | 139° |
| 2026-05-07 15:38 | 40.63643 | -74.68547 | 5574 ft | 285 kts | 139° |
| 2026-05-07 15:38 | 40.62204 | -74.66784 | 5322 ft | 280 kts | 138° |
| 2026-05-07 15:38 | 40.60778 | -74.65057 | 5067 ft | 276 kts | 139° |
| 2026-05-07 15:38 | 40.59371 | -74.63372 | 4869 ft | 269 kts | 138° |
| 2026-05-07 15:39 | 40.58021 | -74.61770 | 4859 ft | 252 kts | 139° |
| 2026-05-07 15:39 | 40.56735 | -74.60239 | 4877 ft | 252 kts | 139° |
| 2026-05-07 15:39 | 40.55405 | -74.58657 | 4880 ft | 260 kts | 139° |
| 2026-05-07 15:39 | 40.54055 | -74.57053 | 4864 ft | 260 kts | 139° |
| 2026-05-07 15:40 | 40.52698 | -74.55440 | 4625 ft | 262 kts | 138° |
| 2026-05-07 15:40 | 40.51350 | -74.53847 | 4374 ft | 256 kts | 138° |
| 2026-05-07 15:40 | 40.50028 | -74.52302 | 4118 ft | 252 kts | 138° |
| 2026-05-07 15:40 | 40.48714 | -74.50780 | 3973 ft | 247 kts | 138° |
| 2026-05-07 15:41 | 40.47448 | -74.49218 | 3830 ft | 254 kts | 125° |
| 2026-05-07 15:41 | 40.46747 | -74.47139 | 3629 ft | 246 kts | 92° |
| 2026-05-07 15:41 | 40.46815 | -74.44941 | 3407 ft | 239 kts | 77° |
| 2026-05-07 15:41 | 40.47048 | -74.42812 | 3121 ft | 230 kts | 77° |
| 2026-05-07 15:42 | 40.47269 | -74.40773 | 2973 ft | 220 kts | 77° |
| 2026-05-07 15:42 | 40.47483 | -74.38799 | 2983 ft | 220 kts | 77° |
| 2026-05-07 15:42 | 40.47705 | -74.36766 | 2983 ft | 226 kts | 77° |
| 2026-05-07 15:42 | 40.47947 | -74.34727 | 2972 ft | 224 kts | 70° |
| 2026-05-07 15:43 | 40.48645 | -74.32974 | 3001 ft | 217 kts | 48° |
| 2026-05-07 15:43 | 40.49595 | -74.31412 | 2979 ft | 218 kts | 47° |
| 2026-05-07 15:43 | 40.50550 | -74.29867 | 2978 ft | 217 kts | 47° |
| 2026-05-07 15:43 | 40.51500 | -74.28314 | 2980 ft | 218 kts | 47° |
| 2026-05-07 15:44 | 40.52596 | -74.27053 | 2981 ft | 200 kts | 23° |
| 2026-05-07 15:44 | 40.53797 | -74.26283 | 2992 ft | 186 kts | 22° |
| 2026-05-07 15:44 | 40.54952 | -74.25526 | 2811 ft | 184 kts | 22° |
| 2026-05-07 15:44 | 40.56095 | -74.24786 | 2593 ft | 182 kts | 24° |
| 2026-05-07 15:45 | 40.57205 | -74.24059 | 2374 ft | 169 kts | 22° |
| 2026-05-07 15:45 | 40.58184 | -74.23408 | 2240 ft | 146 kts | 24° |
| 2026-05-07 15:45 | 40.59020 | -74.22836 | 2046 ft | 127 kts | 23° |
| 2026-05-07 15:45 | 40.59780 | -74.22327 | 1743 ft | 118 kts | 19° |
| 2026-05-07 15:46 | 40.61280 | -74.21484 | 1344 ft | 118 kts | 22° |
| 2026-05-07 15:46 | 40.62018 | -74.20994 | 1276 ft | 121 kts | 21° |
| 2026-05-07 15:46 | 40.62779 | -74.20509 | 1155 ft | 123 kts | 21° |
| 2026-05-07 15:47 | 40.63549 | -74.20050 | 1019 ft | 119 kts | 19° |
| 2026-05-07 15:47 | 40.64297 | -74.19602 | 844 ft | 120 kts | 22° |
| 2026-05-07 15:47 | 40.65057 | -74.19128 | 681 ft | 121 kts | 22° |
| 2026-05-07 15:47 | 40.65801 | -74.18668 | 518 ft | 120 kts | 23° |
| 2026-05-07 15:48 | 40.66527 | -74.18184 | 361 ft | 117 kts | 21° |
| 2026-05-07 15:48 | 40.67225 | -74.17759 | 207 ft | 121 kts | 23° |
| 2026-05-07 15:48 | 40.67981 | -74.17279 | 59 ft | 119 kts | 22° |
| 2026-05-07 15:48 | 40.68708 | -74.16820 | 29 ft | 112 kts | 23° |
| 2026-05-07 15:49 | 40.69202 | -74.16510 | 28 ft | 53 kts | 26° |
| 2026-05-07 15:49 | 40.69429 | -74.16367 | 28 ft | 20 kts | 24° |
| 2026-05-07 15:49 | 40.69534 | -74.16359 | 28 ft | 14 kts | 328° |
| 2026-05-07 15:49 | 40.69577 | -74.16433 | 28 ft | 6 kts | 297° |
| 2026-05-07 15:50 | 40.69592 | -74.16472 | 28 ft | 5 kts | 296° |
| 2026-05-07 15:50 | 40.69614 | -74.16527 | 28 ft | 9 kts | 298° |
| 2026-05-07 15:50 | 40.69649 | -74.16622 | 28 ft | 13 kts | 295° |
| 2026-05-07 15:50 | 40.69686 | -74.16727 | 28 ft | 10 kts | 283° |
| 2026-05-07 15:51 | 40.69668 | -74.16814 | 28 ft | 10 kts | 246° |
| 2026-05-07 15:51 | 40.69636 | -74.16889 | 28 ft | 9 kts | 222° |
| 2026-05-07 15:51 | 40.69573 | -74.16932 | 28 ft | 13 kts | 205° |
| 2026-05-07 15:51 | 40.69457 | -74.17003 | 28 ft | 17 kts | 204° |
| 2026-05-07 15:52 | 40.69337 | -74.17078 | 28 ft | 20 kts | 206° |
| 2026-05-07 15:52 | 40.69255 | -74.17132 | 28 ft | 6 kts | 208° |
| 2026-05-07 15:52 | 40.69248 | -74.17171 | 28 ft | 5 kts | 298° |
| 2026-05-07 15:52 | 40.69270 | -74.17222 | 28 ft | 6 kts | 301° |
| 2026-05-07 15:53 | 40.69297 | -74.17278 | 28 ft | 7 kts | 302° |
| 2026-05-07 15:53 | 40.69323 | -74.17339 | 28 ft | 7 kts | 292° |
| 2026-05-07 15:53 | 40.69337 | -74.17405 | 28 ft | 7 kts | 281° |
| 2026-05-07 15:53 | 40.69349 | -74.17459 | 28 ft | 6 kts | 305° |
| 2026-05-07 15:54 | 40.69379 | -74.17487 | 28 ft | 3 kts | 330° |
| 2026-05-07 15:54 | 40.69405 | -74.17489 | 28 ft | 4 kts | 12° |
| 2026-05-07 15:54 | 40.69423 | -74.17484 | 28 ft | 1 kts | 12° |
| 2026-05-07 15:54 | 40.69426 | -74.17483 | 28 ft | 0 kts | 12° |